createdAt,value
2018-05-29T00:00:14.041Z,21.59
2018-05-29T00:02:42.284Z,21.44
2018-05-29T00:05:11.324Z,21.38
2018-05-29T00:07:39.582Z,21.33
2018-05-29T00:10:07.845Z,21.18
2018-05-29T00:12:36.182Z,20.97
2018-05-29T00:15:04.520Z,20.94
2018-05-29T00:17:32.831Z,20.77
2018-05-29T00:20:01.147Z,20.69
2018-05-29T00:22:29.404Z,20.47
2018-05-29T00:24:57.677Z,20.57
2018-05-29T00:27:25.961Z,20.71
2018-05-29T00:29:54.203Z,20.62
2018-05-29T00:32:23.216Z,20.68
2018-05-29T00:34:51.487Z,20.66
2018-05-29T00:37:19.750Z,20.26
2018-05-29T00:39:47.988Z,20.48
2018-05-29T00:42:16.265Z,20.41
2018-05-29T00:44:44.520Z,20.26
2018-05-29T00:47:13.541Z,20.50
2018-05-29T00:49:41.808Z,20.60
2018-05-29T00:52:10.164Z,20.75
2018-05-29T00:54:38.456Z,20.64
2018-05-29T00:57:06.807Z,20.76
2018-05-29T00:59:35.970Z,20.80
2018-05-29T01:02:04.300Z,20.66
2018-05-29T01:04:32.639Z,20.67
2018-05-29T01:07:00.943Z,20.68
2018-05-29T01:09:30.031Z,20.34
2018-05-29T01:11:59.065Z,20.38
2018-05-29T01:14:27.331Z,20.41
2018-05-29T01:16:56.340Z,20.44
2018-05-29T01:19:24.624Z,20.57
2018-05-29T01:21:52.864Z,20.60
2018-05-29T01:24:21.894Z,20.57
2018-05-29T01:26:50.150Z,20.62
2018-05-29T01:29:18.417Z,20.67
2018-05-29T01:31:47.430Z,20.66
2018-05-29T01:34:15.699Z,20.54
2018-05-29T01:36:47.550Z,20.57
2018-05-29T01:39:15.824Z,20.56
2018-05-29T01:41:44.073Z,20.44
2018-05-29T01:44:12.324Z,20.29
2018-05-29T01:46:40.593Z,20.17
2018-05-29T01:49:08.847Z,20.09
2018-05-29T01:51:37.109Z,19.96
2018-05-29T01:54:05.379Z,19.84
2018-05-29T01:56:34.389Z,19.68
2018-05-29T01:59:02.645Z,19.63
2018-05-29T02:01:31.673Z,19.62
2018-05-29T02:03:59.924Z,19.48
2018-05-29T02:06:28.170Z,19.44
2018-05-29T02:08:56.432Z,19.46
2018-05-29T02:11:24.689Z,19.45
2018-05-29T02:13:52.938Z,19.28
2018-05-29T02:16:21.210Z,19.25
2018-05-29T02:18:49.476Z,19.17
2018-05-29T02:21:17.728Z,19.13
2018-05-29T02:23:45.992Z,19.12
2018-05-29T02:26:14.249Z,19.13
2018-05-29T02:28:42.505Z,18.90
2018-05-29T02:31:10.791Z,18.74
2018-05-29T02:33:39.036Z,18.76
2018-05-29T02:36:07.301Z,18.80
2018-05-29T02:38:36.328Z,18.89
2018-05-29T02:41:04.584Z,18.92
2018-05-29T02:43:32.831Z,18.99
2018-05-29T02:46:01.103Z,18.97
2018-05-29T02:48:29.357Z,18.91
2018-05-29T02:50:57.625Z,18.88
2018-05-29T02:53:25.939Z,18.81
2018-05-29T02:55:54.193Z,18.80
2018-05-29T02:58:22.445Z,18.65
2018-05-29T03:00:50.716Z,18.57
2018-05-29T03:03:18.981Z,18.51
2018-05-29T03:05:47.237Z,18.45
2018-05-29T03:08:16.301Z,18.42
2018-05-29T03:10:44.556Z,18.36
2018-05-29T03:13:12.805Z,18.40
2018-05-29T03:15:41.109Z,18.45
2018-05-29T03:18:09.353Z,18.38
2018-05-29T03:20:37.609Z,18.44
2018-05-29T03:23:06.648Z,18.43
2018-05-29T03:25:34.896Z,18.47
2018-05-29T03:28:03.158Z,18.51
2018-05-29T03:30:32.193Z,18.60
2018-05-29T03:33:00.469Z,18.66
2018-05-29T03:35:28.725Z,18.70
2018-05-29T03:37:56.989Z,18.69
2018-05-29T03:40:25.254Z,18.61
2018-05-29T03:42:54.285Z,18.60
2018-05-29T03:45:22.552Z,18.57
2018-05-29T03:47:50.824Z,18.63
2018-05-29T03:50:19.822Z,18.64
2018-05-29T03:52:48.090Z,18.71
2018-05-29T03:55:16.348Z,18.75
2018-05-29T03:57:45.361Z,18.78
2018-05-29T04:00:13.652Z,18.84
2018-05-29T04:02:41.909Z,18.85
2018-05-29T04:05:10.152Z,18.91
2018-05-29T04:07:39.173Z,18.97
2018-05-29T04:10:07.446Z,18.99
2018-05-29T04:12:35.708Z,19.01
2018-05-29T04:15:04.746Z,19.01
2018-05-29T04:17:33.010Z,19.01
2018-05-29T04:20:01.274Z,18.93
2018-05-29T04:22:29.549Z,19.00
2018-05-29T04:24:57.801Z,18.96
2018-05-29T04:27:26.821Z,18.99
2018-05-29T04:29:55.096Z,19.04
2018-05-29T04:32:23.341Z,19.11
2018-05-29T04:34:52.385Z,19.06
2018-05-29T04:37:20.657Z,19.17
2018-05-29T04:39:48.928Z,19.25
2018-05-29T04:42:17.185Z,19.22
2018-05-29T04:44:45.461Z,19.29
2018-05-29T04:47:13.712Z,19.34
2018-05-29T04:49:42.736Z,19.47
2018-05-29T04:52:11.002Z,19.54
2018-05-29T04:54:40.017Z,19.51
2018-05-29T04:57:08.269Z,19.45
2018-05-29T04:59:37.339Z,19.29
2018-05-29T05:02:05.596Z,19.36
2018-05-29T05:04:33.870Z,19.51
2018-05-29T05:07:02.142Z,19.64
2018-05-29T05:09:30.398Z,19.75
2018-05-29T05:11:58.645Z,19.77
2018-05-29T05:14:27.688Z,19.89
2018-05-29T05:16:55.950Z,20.10
2018-05-29T05:19:24.227Z,20.26
2018-05-29T05:21:52.498Z,20.44
2018-05-29T05:24:20.760Z,20.30
2018-05-29T05:26:49.101Z,20.38
2018-05-29T05:29:17.384Z,20.62
2018-05-29T05:31:46.403Z,20.88
2018-05-29T05:34:14.689Z,21.08
2018-05-29T05:36:42.948Z,21.14
2018-05-29T05:39:11.972Z,21.36
2018-05-29T05:41:40.335Z,21.57
2018-05-29T05:44:08.604Z,21.80
2018-05-29T05:46:36.883Z,21.90
2018-05-29T05:49:05.169Z,21.96
2018-05-29T05:51:33.537Z,21.97
2018-05-29T05:54:01.788Z,22.01
2018-05-29T05:56:30.817Z,22.18
2018-05-29T05:58:59.081Z,22.31
2018-05-29T06:01:27.337Z,22.47
2018-05-29T06:03:56.436Z,22.59
2018-05-29T06:06:25.470Z,22.81
2018-05-29T06:08:53.725Z,22.97
2018-05-29T06:11:21.977Z,23.07
2018-05-29T06:13:51.012Z,23.12
2018-05-29T06:16:19.320Z,23.32
2018-05-29T06:18:47.529Z,23.56
2018-05-29T06:21:16.556Z,23.75
2018-05-29T06:23:44.808Z,23.89
2018-05-29T06:26:13.830Z,24.02
2018-05-29T06:28:42.108Z,23.84
2018-05-29T06:31:10.363Z,23.60
2018-05-29T06:33:38.616Z,23.78
2018-05-29T06:36:07.680Z,23.75
2018-05-29T06:38:35.971Z,23.94
2018-05-29T06:41:04.201Z,23.98
2018-05-29T06:43:32.469Z,24.08
2018-05-29T06:46:00.740Z,24.14
2018-05-29T06:48:28.981Z,24.17
2018-05-29T06:50:58.021Z,24.24
2018-05-29T06:53:26.273Z,24.44
2018-05-29T06:55:54.528Z,24.49
2018-05-29T06:58:23.557Z,24.44
2018-05-29T07:00:51.829Z,24.71
2018-05-29T07:03:20.069Z,24.87
2018-05-29T07:05:48.341Z,24.69
2018-05-29T07:08:16.604Z,24.96
2018-05-29T07:10:44.853Z,25.17
2018-05-29T07:13:13.124Z,25.27
2018-05-29T07:15:41.465Z,25.36
2018-05-29T07:18:10.520Z,25.28
2018-05-29T07:20:38.793Z,25.54
2018-05-29T07:23:07.057Z,25.71
2018-05-29T07:25:35.324Z,25.87
2018-05-29T07:28:03.586Z,26.01
2018-05-29T07:30:31.844Z,25.93
2018-05-29T07:33:00.873Z,26.02
2018-05-29T07:35:29.144Z,26.21
2018-05-29T07:37:57.395Z,26.20
2018-05-29T07:40:26.421Z,26.16
2018-05-29T07:42:54.710Z,26.36
2018-05-29T07:45:22.973Z,26.32
2018-05-29T07:47:51.305Z,26.50
2018-05-29T07:50:20.337Z,26.65
2018-05-29T07:52:48.637Z,26.77
2018-05-29T07:55:16.889Z,26.95
2018-05-29T07:57:45.165Z,27.00
2018-05-29T08:00:13.441Z,27.04
2018-05-29T08:02:41.708Z,26.95
2018-05-29T08:05:09.984Z,27.13
2018-05-29T08:07:38.244Z,27.18
2018-05-29T08:10:07.265Z,27.37
2018-05-29T08:12:35.525Z,27.33
2018-05-29T08:15:03.781Z,27.43
2018-05-29T08:17:32.789Z,27.53
2018-05-29T08:20:01.064Z,27.56
2018-05-29T08:22:30.069Z,27.50
2018-05-29T08:24:58.325Z,27.63
2018-05-29T08:27:27.362Z,27.53
2018-05-29T08:29:55.623Z,27.59
2018-05-29T08:32:23.880Z,27.77
2018-05-29T08:34:52.146Z,27.76
2018-05-29T08:37:21.156Z,27.78
2018-05-29T08:39:49.412Z,27.81
2018-05-29T08:42:18.456Z,27.84
2018-05-29T08:44:46.709Z,28.03
2018-05-29T08:47:14.974Z,27.91
2018-05-29T08:49:43.253Z,28.02
2018-05-29T08:52:12.265Z,28.25
2018-05-29T08:54:40.533Z,28.46
2018-05-29T08:57:08.798Z,28.39
2018-05-29T08:59:37.074Z,28.45
2018-05-29T09:02:05.329Z,28.36
2018-05-29T09:04:34.364Z,28.27
2018-05-29T09:07:02.628Z,28.50
2018-05-29T09:09:30.885Z,28.27
2018-05-29T09:11:59.927Z,28.45
2018-05-29T09:14:28.181Z,28.65
2018-05-29T09:16:56.423Z,28.75
2018-05-29T09:19:25.462Z,28.90
2018-05-29T09:21:53.711Z,29.06
2018-05-29T09:24:21.974Z,28.80
2018-05-29T09:26:51.004Z,28.59
2018-05-29T09:29:19.275Z,28.62
2018-05-29T09:31:47.522Z,28.55
2018-05-29T09:34:16.548Z,28.65
2018-05-29T09:36:44.799Z,28.88
2018-05-29T09:39:13.053Z,28.76
2018-05-29T09:41:41.353Z,28.83
2018-05-29T09:44:09.607Z,28.90
2018-05-29T09:46:38.723Z,29.12
2018-05-29T09:49:07.745Z,29.32
2018-05-29T09:51:35.995Z,29.11
2018-05-29T09:54:04.247Z,29.10
2018-05-29T09:56:32.523Z,29.44
2018-05-29T09:59:01.554Z,29.65
2018-05-29T10:01:29.807Z,29.73
2018-05-29T10:03:58.858Z,29.82
2018-05-29T10:06:27.139Z,30.23
2018-05-29T10:08:55.389Z,30.46
2018-05-29T10:11:23.697Z,30.32
2018-05-29T10:13:51.936Z,30.33
2018-05-29T10:16:20.216Z,30.50
2018-05-29T10:18:48.560Z,30.50
2018-05-29T10:21:17.590Z,30.71
2018-05-29T10:23:45.841Z,30.89
2018-05-29T10:26:14.112Z,30.98
2018-05-29T10:28:42.385Z,30.98
2018-05-29T10:31:11.393Z,30.98
2018-05-29T10:33:39.676Z,31.11
2018-05-29T10:36:07.949Z,31.09
2018-05-29T10:38:36.209Z,31.17
2018-05-29T10:41:05.249Z,31.18
2018-05-29T10:43:33.504Z,31.28
2018-05-29T10:46:01.796Z,31.05
2018-05-29T10:48:30.033Z,31.11
2018-05-29T10:50:58.300Z,31.33
2018-05-29T10:53:27.330Z,31.63
2018-05-29T10:55:55.609Z,31.79
2018-05-29T10:58:23.900Z,31.95
2018-05-29T11:00:52.153Z,31.99
2018-05-29T11:03:20.426Z,31.96
2018-05-29T11:05:48.716Z,32.07
2018-05-29T11:08:16.972Z,32.17
2018-05-29T11:10:45.249Z,32.05
2018-05-29T11:13:13.557Z,32.05
2018-05-29T11:15:41.813Z,32.09
2018-05-29T11:18:10.080Z,31.93
2018-05-29T11:20:38.338Z,32.08
2018-05-29T11:23:06.605Z,32.33
2018-05-29T11:25:35.649Z,32.21
2018-05-29T11:28:03.889Z,32.24
2018-05-29T11:30:32.148Z,32.09
2018-05-29T11:33:01.176Z,32.20
2018-05-29T11:35:29.435Z,32.19
2018-05-29T11:37:57.693Z,32.23
2018-05-29T11:40:25.999Z,31.93
2018-05-29T11:42:54.240Z,32.20
2018-05-29T11:45:23.271Z,32.59
2018-05-29T11:47:51.536Z,32.61
2018-05-29T11:50:19.793Z,33.07
2018-05-29T11:52:48.811Z,32.95
2018-05-29T11:55:17.089Z,32.86
2018-05-29T11:57:45.332Z,32.06
2018-05-29T12:00:14.357Z,32.53
2018-05-29T12:02:42.638Z,33.09
2018-05-29T12:05:10.896Z,33.07
2018-05-29T12:07:39.971Z,33.47
2018-05-29T12:10:08.185Z,33.67
2018-05-29T12:12:36.446Z,33.92
2018-05-29T12:15:04.704Z,33.77
2018-05-29T12:17:33.756Z,33.28
2018-05-29T12:20:02.779Z,33.73
2018-05-29T12:22:31.048Z,33.83
2018-05-29T12:24:59.333Z,34.16
2018-05-29T12:27:27.629Z,34.47
2018-05-29T12:29:56.656Z,34.12
2018-05-29T12:32:24.918Z,34.40
2018-05-29T12:34:53.173Z,34.09
2018-05-29T12:37:22.187Z,33.93
2018-05-29T12:39:50.453Z,34.30
2018-05-29T12:42:19.471Z,34.54
2018-05-29T12:44:47.724Z,34.78
2018-05-29T12:47:15.994Z,34.55
2018-05-29T12:49:45.018Z,34.58
2018-05-29T12:52:13.268Z,34.63
2018-05-29T12:54:41.540Z,34.46
2018-05-29T12:57:10.565Z,34.78
2018-05-29T12:59:38.820Z,35.12
2018-05-29T13:02:07.077Z,35.39
2018-05-29T13:04:36.094Z,35.20
2018-05-29T13:07:04.337Z,35.55
2018-05-29T13:09:32.623Z,35.53
2018-05-29T13:12:01.633Z,34.48
2018-05-29T13:14:29.889Z,34.86
2018-05-29T13:16:58.924Z,35.21
2018-05-29T13:19:27.183Z,35.76
2018-05-29T13:21:55.438Z,36.05
2018-05-29T13:24:24.474Z,36.19
2018-05-29T13:26:52.721Z,36.62
2018-05-29T13:29:21.760Z,36.32
2018-05-29T13:31:50.013Z,36.52
2018-05-29T13:34:18.263Z,36.89
2018-05-29T13:36:47.309Z,36.97
2018-05-29T13:39:15.592Z,36.99
2018-05-29T13:41:43.843Z,36.82
2018-05-29T13:44:12.133Z,36.27
2018-05-29T13:46:40.389Z,34.96
2018-05-29T13:49:08.667Z,35.88
2018-05-29T13:51:36.941Z,35.97
2018-05-29T13:54:05.205Z,36.68
2018-05-29T13:56:33.496Z,36.68
2018-05-29T13:59:01.712Z,37.07
2018-05-29T14:01:29.969Z,36.85
2018-05-29T14:03:58.220Z,35.98
2018-05-29T14:06:26.481Z,35.33
2018-05-29T14:08:54.784Z,34.46
2018-05-29T14:11:23.766Z,33.76
2018-05-29T14:13:52.055Z,32.75
2018-05-29T14:16:20.301Z,32.28
2018-05-29T14:18:49.789Z,31.85
2018-05-29T14:21:18.900Z,31.23
2018-05-29T14:23:47.169Z,31.14
2018-05-29T14:26:16.285Z,30.85
2018-05-29T14:28:44.553Z,30.42
2018-05-29T14:31:12.812Z,30.03
2018-05-29T14:33:41.860Z,29.24
2018-05-29T14:36:10.182Z,28.75
2018-05-29T14:38:39.284Z,28.60
2018-05-29T14:41:08.344Z,28.52
2018-05-29T14:43:36.664Z,28.35
2018-05-29T14:46:04.983Z,26.92
2018-05-29T14:48:33.307Z,26.79
2018-05-29T14:51:01.745Z,26.60
2018-05-29T14:53:30.062Z,26.03
2018-05-29T14:55:58.355Z,25.13
2018-05-29T14:58:26.680Z,24.03
2018-05-29T15:00:55.001Z,23.67
2018-05-29T15:03:23.330Z,23.07
2018-05-29T15:05:51.673Z,22.62
2018-05-29T15:08:19.998Z,22.55
2018-05-29T15:10:48.346Z,22.14
2018-05-29T15:13:16.680Z,21.86
2018-05-29T15:15:45.744Z,21.85
2018-05-29T15:18:14.077Z,21.71
2018-05-29T15:20:42.424Z,21.85
2018-05-29T15:23:11.517Z,21.66
2018-05-29T15:25:40.613Z,21.78
2018-05-29T15:28:09.712Z,22.08
2018-05-29T15:30:38.765Z,22.02
2018-05-29T15:33:07.085Z,22.11
2018-05-29T15:35:36.216Z,22.24
2018-05-29T15:38:04.523Z,22.40
2018-05-29T15:40:32.858Z,22.32
2018-05-29T15:43:01.179Z,22.40
2018-05-29T15:45:29.493Z,22.50
2018-05-29T15:47:58.580Z,22.36
2018-05-29T15:50:27.684Z,22.36
2018-05-29T15:52:56.759Z,22.48
2018-05-29T15:55:25.881Z,22.41
2018-05-29T15:57:54.977Z,22.38
2018-05-29T16:00:24.062Z,22.33
2018-05-29T16:02:53.164Z,22.23
2018-05-29T16:05:21.498Z,22.12
2018-05-29T16:07:49.808Z,21.93
2018-05-29T16:10:18.882Z,22.02
2018-05-29T16:12:47.189Z,21.68
2018-05-29T16:15:16.239Z,21.64
2018-05-29T16:17:44.546Z,21.63
2018-05-29T16:20:13.654Z,21.67
2018-05-29T16:22:42.738Z,21.68
2018-05-29T16:25:11.831Z,21.65
2018-05-29T16:27:40.126Z,21.56
2018-05-29T16:30:08.451Z,21.54
2018-05-29T16:32:36.750Z,21.26
2018-05-29T16:35:05.101Z,21.14
2018-05-29T16:37:33.492Z,21.26
2018-05-29T16:40:01.813Z,21.38
2018-05-29T16:42:30.902Z,21.23
2018-05-29T16:44:59.971Z,21.15
2018-05-29T16:47:28.275Z,21.23
2018-05-29T16:49:57.351Z,21.02
2018-05-29T16:52:25.670Z,21.08
2018-05-29T16:54:53.981Z,21.14
2018-05-29T16:57:22.320Z,21.25
2018-05-29T16:59:50.685Z,20.94
2018-05-29T17:02:19.112Z,21.02
2018-05-29T17:04:47.511Z,21.05
2018-05-29T17:07:15.830Z,21.01
2018-05-29T17:09:44.163Z,21.04
2018-05-29T17:12:12.450Z,21.15
2018-05-29T17:14:40.709Z,21.21
2018-05-29T17:17:08.972Z,21.15
2018-05-29T17:19:37.242Z,21.26
2018-05-29T17:22:05.530Z,21.30
2018-05-29T17:24:33.792Z,21.29
2018-05-29T17:27:02.438Z,21.38
2018-05-29T17:29:31.191Z,21.41
2018-05-29T17:31:59.818Z,21.42
2018-05-29T17:34:28.922Z,21.25
2018-05-29T17:36:57.908Z,21.25
2018-05-29T17:39:26.837Z,21.02
2018-05-29T17:41:57.742Z,21.02
2018-05-29T17:44:26.977Z,21.16
2018-05-29T17:46:56.313Z,21.13
2018-05-29T17:49:25.650Z,21.17
2018-05-29T17:51:55.801Z,21.24
2018-05-29T17:54:25.103Z,21.12
2018-05-29T17:56:54.344Z,21.14
2018-05-29T17:59:23.658Z,20.95
2018-05-29T18:01:52.868Z,20.69
2018-05-29T18:04:22.104Z,20.88
2018-05-29T18:06:51.466Z,20.87
2018-05-29T18:09:20.755Z,20.71
2018-05-29T18:11:50.162Z,20.79
2018-05-29T18:14:20.088Z,20.63
2018-05-29T18:16:50.220Z,20.50
2018-05-29T18:19:19.519Z,20.79
2018-05-29T18:21:48.795Z,20.71
2018-05-29T18:24:18.163Z,20.68
2018-05-29T18:26:47.404Z,20.58
2018-05-29T18:29:16.932Z,20.40
2018-05-29T18:31:47.668Z,20.25
2018-05-29T18:34:17.781Z,20.24
2018-05-29T18:36:48.011Z,20.23
2018-05-29T18:39:17.397Z,20.20
2018-05-29T18:41:46.744Z,20.24
2018-05-29T18:44:16.111Z,20.18
2018-05-29T18:46:45.512Z,20.36
2018-05-29T18:49:15.720Z,20.54
2018-05-29T18:51:46.687Z,20.57
2018-05-29T18:54:16.057Z,20.57
2018-05-29T18:56:46.116Z,20.79
2018-05-29T18:59:15.590Z,20.90
2018-05-29T19:01:45.633Z,20.89
2018-05-29T19:04:15.015Z,20.94
2018-05-29T19:06:45.131Z,20.92
2018-05-29T19:09:15.612Z,20.93
2018-05-29T19:11:44.918Z,20.99
2018-05-29T19:14:14.289Z,21.08
2018-05-29T19:16:44.412Z,21.14
2018-05-29T19:19:13.760Z,21.12
2018-05-29T19:21:43.152Z,21.05
2018-05-29T19:24:12.455Z,20.95
2018-05-29T19:26:41.802Z,20.94
2018-05-29T19:29:11.161Z,20.90
2018-05-29T19:31:40.438Z,20.91
2018-05-29T19:34:10.025Z,20.88
2018-05-29T19:36:39.454Z,20.76
2018-05-29T19:39:08.960Z,20.70
2018-05-29T19:41:38.522Z,20.58
2018-05-29T19:44:08.003Z,20.67
2018-05-29T19:46:38.278Z,20.58
2018-05-29T19:49:07.807Z,20.59
2018-05-29T19:51:37.143Z,20.60
2018-05-29T19:54:07.293Z,20.72
2018-05-29T19:56:36.569Z,20.77
2018-05-29T19:59:05.999Z,20.74
2018-05-29T20:01:35.391Z,20.69
2018-05-29T20:04:04.782Z,20.51
2018-05-29T20:06:34.956Z,20.17
2018-05-29T20:09:04.449Z,20.32
2018-05-29T20:11:33.807Z,20.39
2018-05-29T20:14:04.042Z,20.50
2018-05-29T20:16:33.570Z,20.57
2018-05-29T20:19:02.846Z,20.59
2018-05-29T20:21:32.167Z,20.57
2018-05-29T20:24:01.478Z,20.44
2018-05-29T20:26:30.819Z,20.53
2018-05-29T20:29:00.234Z,20.54
2018-05-29T20:31:30.322Z,20.54
2018-05-29T20:33:59.774Z,20.39
2018-05-29T20:36:29.109Z,20.37
2018-05-29T20:38:58.449Z,20.27
2018-05-29T20:41:27.869Z,20.29
2018-05-29T20:43:57.201Z,20.32
2018-05-29T20:46:26.453Z,20.30
2018-05-29T20:48:56.705Z,20.18
2018-05-29T20:51:25.994Z,20.12
2018-05-29T20:53:56.104Z,20.12
2018-05-29T20:56:25.894Z,20.09
2018-05-29T20:58:55.203Z,20.00
2018-05-29T21:01:24.535Z,19.91
2018-05-29T21:03:53.737Z,20.01
2018-05-29T21:06:23.549Z,20.09
2018-05-29T21:08:52.712Z,20.18
2018-05-29T21:11:21.757Z,19.98
2018-05-29T21:13:52.317Z,19.99
2018-05-29T21:16:20.671Z,20.06
2018-05-29T21:18:48.962Z,20.07
2018-05-29T21:21:17.341Z,20.14
2018-05-29T21:23:45.592Z,20.11
2018-05-29T21:26:13.853Z,20.14
2018-05-29T21:28:42.117Z,19.97
2018-05-29T21:31:10.376Z,19.79
2018-05-29T21:33:38.632Z,19.70
2018-05-29T21:36:07.674Z,19.83
2018-05-29T21:38:35.947Z,19.86
2018-05-29T21:41:04.200Z,19.86
2018-05-29T21:43:32.468Z,19.91
2018-05-29T21:46:01.494Z,19.82
2018-05-29T21:48:29.742Z,19.68
2018-05-29T21:50:58.061Z,19.65
2018-05-29T21:53:26.317Z,19.73
2018-05-29T21:55:54.568Z,19.72
2018-05-29T21:58:23.615Z,19.66
2018-05-29T22:00:52.636Z,19.58
2018-05-29T22:03:20.920Z,19.62
2018-05-29T22:05:50.101Z,19.70
2018-05-29T22:08:18.349Z,19.72
2018-05-29T22:10:46.603Z,19.71
2018-05-29T22:13:14.870Z,19.69
2018-05-29T22:15:43.136Z,19.75
2018-05-29T22:18:12.149Z,19.72
2018-05-29T22:20:40.452Z,19.73
2018-05-29T22:23:09.483Z,19.74
2018-05-29T22:25:37.793Z,19.74
2018-05-29T22:28:06.181Z,19.71
2018-05-29T22:30:34.479Z,19.66
2018-05-29T22:33:02.742Z,19.55
2018-05-29T22:35:31.009Z,19.24
2018-05-29T22:38:00.069Z,19.23
2018-05-29T22:40:29.098Z,19.20
2018-05-29T22:42:57.384Z,19.28
2018-05-29T22:45:25.655Z,19.25
2018-05-29T22:47:54.100Z,19.28
2018-05-29T22:50:22.405Z,19.31
2018-05-29T22:52:50.924Z,19.32
2018-05-29T22:55:19.222Z,19.28
2018-05-29T22:57:47.496Z,19.02
2018-05-29T23:00:15.753Z,19.04
2018-05-29T23:02:44.793Z,19.00
2018-05-29T23:05:13.084Z,18.98
2018-05-29T23:07:41.353Z,19.05
2018-05-29T23:10:09.639Z,19.06
2018-05-29T23:12:37.941Z,19.11
2018-05-29T23:15:06.206Z,19.17
2018-05-29T23:17:34.533Z,19.21
2018-05-29T23:20:03.572Z,19.26
2018-05-29T23:22:31.828Z,19.24
2018-05-29T23:25:00.089Z,19.04
2018-05-29T23:27:29.158Z,19.06
2018-05-29T23:29:57.561Z,19.11
2018-05-29T23:32:26.745Z,19.08
2018-05-29T23:34:55.794Z,18.93
2018-05-29T23:37:24.082Z,18.95
2018-05-29T23:39:52.389Z,18.95
2018-05-29T23:42:21.441Z,19.00
2018-05-29T23:44:49.708Z,19.04
2018-05-29T23:47:17.987Z,19.06
2018-05-29T23:49:46.296Z,18.98
2018-05-29T23:52:14.681Z,18.93
2018-05-29T23:54:42.989Z,18.93
2018-05-29T23:57:11.305Z,18.82
2018-05-29T23:59:39.574Z,18.89
